createdAt,value
2022-12-24T00:01:06.784Z,10.30
2022-12-24T00:03:36.148Z,10.30
2022-12-24T00:06:17.046Z,10.30
2022-12-24T00:08:43.836Z,10.30
2022-12-24T00:11:10.671Z,10.30
2022-12-24T00:13:37.509Z,10.30
2022-12-24T00:16:04.962Z,10.30
2022-12-24T00:18:32.117Z,10.30
2022-12-24T00:20:58.854Z,10.30
2022-12-24T00:23:25.654Z,10.30
2022-12-24T00:25:52.377Z,10.20
2022-12-24T00:28:19.953Z,10.20
2022-12-24T00:30:46.661Z,10.20
2022-12-24T00:33:13.410Z,10.20
2022-12-24T00:35:40.764Z,10.20
2022-12-24T00:38:08.771Z,9.70
2022-12-24T00:40:35.883Z,10.20
2022-12-24T00:43:02.712Z,10.20
2022-12-24T00:45:29.519Z,10.20
2022-12-24T00:47:56.257Z,10.30
2022-12-24T00:50:23.139Z,10.30
2022-12-24T00:52:49.897Z,10.30
2022-12-24T00:55:16.708Z,10.30
2022-12-24T00:57:43.587Z,10.30
2022-12-24T01:00:10.795Z,10.20
2022-12-24T01:02:38.011Z,10.20
2022-12-24T01:05:11.521Z,10.20
2022-12-24T01:07:44.020Z,10.20
2022-12-24T01:10:14.726Z,10.20
2022-12-24T01:12:42.614Z,10.20
2022-12-24T01:15:11.857Z,10.20
2022-12-24T01:17:39.249Z,10.20
2022-12-24T01:20:12.837Z,10.20
2022-12-24T01:22:39.548Z,10.20
2022-12-24T01:25:06.789Z,10.10
2022-12-24T01:27:33.497Z,10.10
2022-12-24T01:30:00.243Z,10.10
2022-12-24T01:32:26.964Z,10.10
2022-12-24T01:34:53.691Z,10.10
2022-12-24T01:37:20.450Z,10.00
2022-12-24T01:39:47.193Z,10.00
2022-12-24T01:42:47.066Z,10.00
2022-12-24T01:45:42.100Z,9.90
2022-12-24T01:48:37.555Z,9.90
2022-12-24T01:51:37.436Z,9.90
2022-12-24T01:54:15.803Z,9.80
2022-12-24T01:56:51.604Z,9.70
2022-12-24T01:59:21.205Z,9.70
2022-12-24T02:01:51.675Z,9.70
2022-12-24T02:04:42.402Z,9.60
2022-12-24T02:07:12.120Z,9.60
2022-12-24T02:09:39.919Z,9.50
2022-12-24T02:12:07.683Z,9.50
2022-12-24T02:14:36.120Z,9.50
2022-12-24T02:17:42.641Z,9.50
2022-12-24T02:20:42.608Z,9.50
2022-12-24T02:23:32.136Z,9.60
2022-12-24T02:26:48.807Z,9.60
2022-12-24T02:29:33.966Z,9.60
2022-12-24T02:32:17.993Z,9.60
2022-12-24T02:34:56.072Z,9.70
2022-12-24T02:37:33.181Z,9.70
2022-12-24T02:40:16.881Z,9.70
2022-12-24T02:42:58.352Z,9.70
2022-12-24T02:45:32.582Z,9.70
2022-12-24T02:48:00.529Z,9.70
2022-12-24T02:50:28.371Z,9.70
2022-12-24T02:52:55.097Z,9.70
2022-12-24T02:55:32.433Z,9.70
2022-12-24T02:58:06.765Z,9.70
2022-12-24T03:00:52.014Z,9.60
2022-12-24T03:03:32.647Z,9.60
2022-12-24T03:06:24.784Z,9.60
2022-12-24T03:09:04.190Z,9.60
2022-12-24T03:11:31.020Z,9.60
2022-12-24T03:14:00.024Z,9.50
2022-12-24T03:16:28.270Z,9.50
2022-12-24T03:18:58.397Z,9.50
2022-12-24T03:21:36.430Z,9.50
2022-12-24T03:24:04.461Z,9.50
2022-12-24T03:26:33.510Z,9.40
2022-12-24T03:29:03.928Z,9.40
2022-12-24T03:31:45.114Z,9.40
2022-12-24T03:34:13.796Z,9.30
2022-12-24T03:36:40.682Z,9.30
2022-12-24T03:39:09.266Z,9.30
2022-12-24T03:41:37.869Z,9.30
2022-12-24T03:44:05.160Z,9.20
2022-12-24T03:46:31.981Z,9.20
2022-12-24T03:48:58.676Z,9.20
2022-12-24T03:51:26.166Z,9.20
2022-12-24T03:53:55.156Z,9.20
2022-12-24T03:56:22.556Z,9.20
2022-12-24T03:58:49.619Z,9.10
2022-12-24T04:01:18.218Z,9.10
2022-12-24T04:03:46.013Z,9.10
2022-12-24T04:06:17.677Z,9.10
2022-12-24T04:08:44.828Z,9.10
2022-12-24T04:11:15.666Z,9.00
2022-12-24T04:13:42.964Z,9.00
2022-12-24T04:16:13.983Z,9.00
2022-12-24T04:18:41.731Z,9.00
2022-12-24T04:21:10.118Z,8.90
2022-12-24T04:23:40.059Z,8.90
2022-12-24T04:26:09.803Z,8.90
2022-12-24T04:28:38.560Z,8.90
2022-12-24T04:31:10.415Z,9.00
2022-12-24T04:33:38.060Z,8.90
2022-12-24T04:36:06.846Z,8.90
2022-12-24T04:38:35.080Z,8.90
2022-12-24T04:41:06.197Z,8.90
2022-12-24T04:43:33.838Z,8.90
2022-12-24T04:46:10.503Z,8.90
2022-12-24T04:48:38.353Z,8.90
2022-12-24T04:51:08.081Z,8.90
2022-12-24T04:53:36.221Z,8.90
2022-12-24T04:56:04.060Z,8.90
2022-12-24T04:58:30.802Z,8.90
2022-12-24T05:01:02.795Z,8.90
2022-12-24T05:03:29.635Z,8.90
2022-12-24T05:06:03.540Z,8.90
2022-12-24T05:08:30.357Z,8.80
2022-12-24T05:11:02.527Z,8.90
2022-12-24T05:13:39.156Z,8.90
2022-12-24T05:16:10.543Z,8.90
2022-12-24T05:18:37.875Z,8.90
2022-12-24T05:21:15.035Z,8.90
2022-12-24T05:24:00.555Z,8.90
2022-12-24T05:26:33.083Z,8.90
2022-12-24T05:29:01.688Z,8.80
2022-12-24T05:31:31.352Z,8.90
2022-12-24T05:33:58.115Z,8.90
2022-12-24T05:36:25.088Z,8.90
2022-12-24T05:38:52.194Z,8.90
2022-12-24T05:41:19.230Z,8.90
2022-12-24T05:43:46.083Z,8.90
2022-12-24T05:46:16.686Z,8.90
2022-12-24T05:48:43.474Z,8.90
2022-12-24T05:51:13.529Z,8.90
2022-12-24T05:53:40.971Z,8.90
2022-12-24T05:56:15.073Z,8.90
2022-12-24T05:58:43.321Z,8.90
2022-12-24T06:01:11.353Z,8.90
2022-12-24T06:03:38.699Z,8.90
2022-12-24T06:06:20.716Z,8.90
2022-12-24T06:08:49.308Z,8.90
2022-12-24T06:11:20.037Z,8.90
2022-12-24T06:13:47.206Z,8.80
2022-12-24T06:16:18.368Z,8.80
2022-12-24T06:18:46.080Z,8.80
2022-12-24T06:21:13.731Z,8.80
2022-12-24T06:23:43.412Z,8.80
2022-12-24T06:26:14.890Z,8.80
2022-12-24T06:28:42.076Z,8.80
2022-12-24T06:31:14.637Z,8.80
2022-12-24T06:33:42.522Z,8.80
2022-12-24T06:36:17.676Z,8.80
2022-12-24T06:38:46.643Z,8.80
2022-12-24T06:41:13.972Z,8.80
2022-12-24T06:43:48.233Z,8.80
2022-12-24T06:46:16.834Z,8.80
2022-12-24T06:48:47.730Z,8.90
2022-12-24T06:51:19.469Z,8.90
2022-12-24T06:53:47.130Z,8.90
2022-12-24T06:56:16.840Z,8.80
2022-12-24T06:58:43.729Z,8.90
2022-12-24T07:01:14.497Z,8.90
2022-12-24T07:03:42.311Z,8.90
2022-12-24T07:06:28.220Z,8.80
2022-12-24T07:08:55.498Z,8.90
2022-12-24T07:11:25.107Z,8.90
2022-12-24T07:13:52.274Z,8.90
2022-12-24T07:16:19.196Z,8.80
2022-12-24T07:18:47.180Z,8.80
2022-12-24T07:21:13.929Z,8.70
2022-12-24T07:23:40.675Z,8.70
2022-12-24T07:26:07.650Z,8.70
2022-12-24T07:28:34.450Z,8.70
2022-12-24T07:31:01.377Z,8.60
2022-12-24T07:33:28.596Z,8.60
2022-12-24T07:36:07.294Z,8.60
2022-12-24T07:38:35.181Z,8.60
2022-12-24T07:41:02.214Z,8.50
2022-12-24T07:43:29.261Z,8.50
2022-12-24T07:45:57.861Z,8.50
2022-12-24T07:48:27.009Z,8.50
2022-12-24T07:50:54.199Z,8.50
2022-12-24T07:53:20.944Z,8.50
2022-12-24T07:55:50.071Z,8.50
2022-12-24T07:58:17.272Z,8.50
2022-12-24T08:00:44.116Z,8.50
2022-12-24T08:03:19.896Z,8.60
2022-12-24T08:05:47.814Z,8.50
2022-12-24T08:08:14.711Z,8.60
2022-12-24T08:10:44.099Z,8.60
2022-12-24T08:13:10.940Z,8.60
2022-12-24T08:15:37.733Z,8.60
2022-12-24T08:18:04.714Z,8.70
2022-12-24T08:20:31.535Z,8.90
2022-12-24T08:22:58.282Z,9.00
2022-12-24T08:25:24.999Z,9.20
2022-12-24T08:27:51.797Z,9.30
2022-12-24T08:30:21.220Z,9.20
2022-12-24T08:32:48.924Z,9.20
2022-12-24T08:35:15.800Z,9.20
2022-12-24T08:37:42.648Z,9.10
2022-12-24T08:40:11.803Z,9.10
2022-12-24T08:42:38.786Z,9.10
2022-12-24T08:45:06.511Z,9.10
2022-12-24T08:47:33.213Z,9.10
2022-12-24T08:49:59.927Z,9.10
2022-12-24T08:52:26.735Z,9.00
2022-12-24T08:54:53.483Z,9.10
2022-12-24T08:57:20.568Z,9.00
2022-12-24T08:59:47.283Z,9.10
2022-12-24T09:02:14.370Z,9.00
2022-12-24T09:04:41.698Z,9.10
2022-12-24T09:07:09.792Z,9.10
2022-12-24T09:09:38.274Z,9.10
2022-12-24T09:12:08.593Z,9.10
2022-12-24T09:14:35.473Z,9.00
2022-12-24T09:17:02.295Z,9.10
2022-12-24T09:19:29.083Z,9.10
2022-12-24T09:21:55.806Z,9.10
2022-12-24T09:24:22.609Z,9.10
2022-12-24T09:26:55.530Z,9.10
2022-12-24T09:29:24.445Z,9.10
2022-12-24T09:31:51.441Z,9.20
2022-12-24T09:34:18.226Z,9.20
2022-12-24T09:36:46.095Z,9.30
2022-12-24T09:39:13.815Z,9.30
2022-12-24T09:42:13.346Z,9.40
2022-12-24T09:45:05.545Z,9.50
2022-12-24T09:47:38.287Z,9.50
2022-12-24T09:50:26.244Z,9.50
2022-12-24T09:52:54.793Z,9.60
2022-12-24T09:55:36.552Z,9.60
2022-12-24T09:58:07.731Z,9.60
2022-12-24T10:00:37.897Z,9.60
2022-12-24T10:03:18.019Z,9.60
2022-12-24T10:06:06.644Z,9.50
2022-12-24T10:08:45.186Z,9.50
2022-12-24T10:11:31.295Z,9.50
2022-12-24T10:14:17.843Z,9.50
2022-12-24T10:17:26.669Z,9.50
2022-12-24T10:20:27.550Z,9.50
2022-12-24T10:23:11.473Z,9.60
2022-12-24T10:26:02.106Z,9.60
2022-12-24T10:28:42.472Z,9.70
2022-12-24T10:31:10.441Z,9.80
2022-12-24T10:33:46.917Z,9.90
2022-12-24T10:36:23.668Z,10.10
2022-12-24T10:38:50.563Z,10.10
2022-12-24T10:41:17.730Z,10.20
2022-12-24T10:43:47.119Z,10.30
2022-12-24T10:46:33.166Z,10.50
2022-12-24T10:49:07.045Z,10.60
2022-12-24T10:51:52.489Z,10.60
2022-12-24T10:54:27.531Z,10.70
2022-12-24T10:57:02.745Z,10.70
2022-12-24T10:59:40.313Z,10.80
2022-12-24T11:02:35.810Z,10.70
2022-12-24T11:05:08.151Z,10.70
2022-12-24T11:07:35.280Z,10.70
2022-12-24T11:10:22.644Z,10.70
2022-12-24T11:13:12.551Z,10.70
2022-12-24T11:15:37.551Z,10.60
2022-12-24T11:18:14.430Z,10.60
2022-12-24T11:20:48.288Z,10.60
2022-12-24T11:23:18.532Z,10.60
2022-12-24T11:25:51.791Z,10.60
2022-12-24T11:28:29.781Z,10.70
2022-12-24T11:31:17.853Z,10.80
2022-12-24T11:33:51.220Z,10.90
2022-12-24T11:36:23.503Z,11.10
2022-12-24T11:38:57.592Z,11.30
2022-12-24T11:41:26.386Z,12.00
2022-12-24T11:44:03.744Z,12.30
2022-12-24T11:46:43.257Z,12.40
2022-12-24T11:49:13.000Z,12.30
2022-12-24T11:51:59.020Z,12.10
2022-12-24T11:54:36.886Z,11.90
2022-12-24T11:57:05.843Z,11.80
2022-12-24T11:59:44.521Z,11.80
2022-12-24T12:02:37.822Z,11.70
2022-12-24T12:05:21.836Z,11.70
2022-12-24T12:07:54.855Z,11.70
2022-12-24T12:10:36.255Z,11.70
2022-12-24T12:13:26.137Z,11.70
2022-12-24T12:16:21.705Z,11.70
2022-12-24T12:18:59.932Z,11.80
2022-12-24T12:21:43.921Z,11.90
2022-12-24T12:24:31.602Z,12.00
2022-12-24T12:27:25.163Z,12.20
2022-12-24T12:30:17.759Z,12.40
2022-12-24T12:33:05.555Z,12.40
2022-12-24T12:35:43.267Z,12.20
2022-12-24T12:38:23.851Z,12.00
2022-12-24T12:41:27.773Z,12.00
2022-12-24T12:44:14.357Z,11.90
2022-12-24T12:47:04.918Z,11.80
2022-12-24T12:50:21.803Z,11.80
2022-12-24T12:53:32.697Z,11.80
2022-12-24T12:56:13.866Z,11.70
2022-12-24T12:59:02.983Z,11.70
2022-12-24T13:01:47.420Z,11.70
2022-12-24T13:05:04.890Z,11.70
2022-12-24T13:08:09.971Z,11.70
2022-12-24T13:11:05.459Z,12.10
2022-12-24T13:14:02.577Z,12.20
2022-12-24T13:16:59.388Z,12.00
2022-12-24T13:20:12.908Z,11.90
2022-12-24T13:22:39.793Z,12.60
2022-12-24T13:25:20.223Z,15.80
2022-12-24T13:27:46.939Z,17.10
2022-12-24T13:30:44.558Z,18.20
2022-12-24T13:33:14.398Z,18.80
2022-12-24T13:36:07.922Z,18.10
2022-12-24T13:38:50.994Z,17.00
2022-12-24T13:41:40.128Z,16.10
2022-12-24T13:44:12.475Z,15.50
2022-12-24T13:47:12.891Z,14.80
2022-12-24T13:49:46.790Z,14.20
2022-12-24T13:52:15.994Z,13.60
2022-12-24T13:54:59.357Z,13.10
2022-12-24T13:57:31.384Z,12.80
2022-12-24T14:00:24.837Z,12.50
2022-12-24T14:03:06.096Z,12.40
2022-12-24T14:05:36.757Z,12.40
2022-12-24T14:08:10.647Z,12.50
2022-12-24T14:10:43.882Z,12.50
2022-12-24T14:13:38.286Z,12.60
2022-12-24T14:16:32.212Z,12.60
2022-12-24T14:19:22.997Z,12.50
2022-12-24T14:22:32.859Z,12.30
2022-12-24T14:25:17.041Z,12.20
2022-12-24T14:28:05.222Z,12.00
2022-12-24T14:30:32.872Z,12.00
2022-12-24T14:32:59.618Z,11.90
2022-12-24T14:35:30.199Z,11.80
2022-12-24T14:38:21.265Z,11.70
2022-12-24T14:41:06.072Z,11.60
2022-12-24T14:44:00.050Z,11.40
2022-12-24T14:46:54.045Z,11.30
2022-12-24T14:49:29.791Z,11.10
2022-12-24T14:52:37.719Z,10.90
2022-12-24T14:55:27.987Z,10.80
2022-12-24T14:58:30.627Z,10.70
2022-12-24T15:01:01.458Z,10.60
2022-12-24T15:03:33.047Z,10.60
2022-12-24T15:06:06.731Z,10.50
2022-12-24T15:08:46.844Z,10.40
2022-12-24T15:11:20.819Z,10.40
2022-12-24T15:13:55.489Z,10.30
2022-12-24T15:16:32.403Z,10.20
2022-12-24T15:19:05.425Z,10.10
2022-12-24T15:21:44.001Z,10.00
2022-12-24T15:24:33.726Z,9.90
2022-12-24T15:27:05.477Z,9.80
2022-12-24T15:29:42.113Z,9.80
2022-12-24T15:32:16.867Z,9.70
2022-12-24T15:34:51.054Z,9.60
2022-12-24T15:37:26.000Z,9.60
2022-12-24T15:40:08.881Z,9.50
2022-12-24T15:42:41.121Z,9.40
2022-12-24T15:45:27.765Z,9.30
2022-12-24T15:48:06.592Z,9.20
2022-12-24T15:50:46.726Z,9.20
2022-12-24T15:53:22.100Z,9.10
2022-12-24T15:56:31.377Z,9.00
2022-12-24T15:59:35.965Z,8.80
2022-12-24T16:02:45.583Z,8.70
2022-12-24T16:05:25.966Z,8.60
2022-12-24T16:08:24.804Z,8.50
2022-12-24T16:11:24.253Z,8.30
2022-12-24T16:13:50.977Z,8.20
2022-12-24T16:16:32.455Z,8.10
2022-12-24T16:19:01.561Z,8.10
2022-12-24T16:21:41.593Z,8.00
2022-12-24T16:24:19.900Z,7.90
2022-12-24T16:26:47.956Z,7.90
2022-12-24T16:29:16.498Z,7.80
2022-12-24T16:31:50.810Z,7.80
2022-12-24T16:34:18.385Z,7.70
2022-12-24T16:36:46.867Z,7.70
2022-12-24T16:39:24.708Z,7.70
2022-12-24T16:42:12.056Z,7.80
2022-12-24T16:44:39.895Z,7.70
2022-12-24T16:47:12.228Z,7.70
2022-12-24T16:49:39.272Z,7.70
2022-12-24T16:52:14.375Z,7.70
2022-12-24T16:54:41.119Z,7.70
2022-12-24T16:57:12.552Z,7.70
2022-12-24T16:59:39.828Z,7.60
2022-12-24T17:02:14.061Z,7.60
2022-12-24T17:04:42.877Z,7.60
2022-12-24T17:07:15.970Z,7.50
2022-12-24T17:09:43.573Z,7.50
2022-12-24T17:12:11.185Z,7.50
2022-12-24T17:14:39.306Z,7.50
2022-12-24T17:17:06.082Z,7.50
2022-12-24T17:19:32.897Z,7.50
2022-12-24T17:21:59.631Z,7.50
2022-12-24T17:24:26.378Z,7.50
2022-12-24T17:26:53.102Z,7.50
2022-12-24T17:29:19.856Z,7.50
2022-12-24T17:31:46.616Z,7.50
2022-12-24T17:34:13.364Z,7.50
2022-12-24T17:36:40.163Z,7.50
2022-12-24T17:39:06.966Z,7.40
2022-12-24T17:41:33.733Z,7.40
2022-12-24T17:44:00.465Z,7.40
2022-12-24T17:46:27.318Z,7.40
2022-12-24T17:48:55.679Z,7.30
2022-12-24T17:51:23.642Z,7.30
2022-12-24T17:53:50.527Z,7.30
2022-12-24T17:56:17.809Z,7.40
2022-12-24T17:58:46.215Z,7.40
2022-12-24T18:01:20.095Z,7.40
2022-12-24T18:03:49.665Z,7.40
2022-12-24T18:06:18.150Z,7.50
2022-12-24T18:08:46.908Z,7.50
2022-12-24T18:11:33.995Z,7.60
2022-12-24T18:14:03.072Z,7.60
2022-12-24T18:16:38.739Z,7.60
2022-12-24T18:19:10.195Z,7.70
2022-12-24T18:21:37.405Z,7.70
2022-12-24T18:24:05.034Z,7.70
2022-12-24T18:26:33.146Z,7.80
2022-12-24T18:29:04.233Z,7.80
2022-12-24T18:31:33.378Z,7.80
2022-12-24T18:34:03.035Z,7.80
2022-12-24T18:36:30.218Z,7.80
2022-12-24T18:38:57.324Z,7.90
2022-12-24T18:41:28.251Z,7.90
2022-12-24T18:43:56.143Z,7.90
2022-12-24T18:46:27.202Z,7.90
2022-12-24T18:48:57.043Z,7.90
2022-12-24T18:51:27.904Z,7.90
2022-12-24T18:53:54.952Z,7.90
2022-12-24T18:56:25.044Z,7.90
2022-12-24T18:58:59.188Z,7.90
2022-12-24T19:01:30.291Z,7.90
2022-12-24T19:03:57.619Z,7.90
2022-12-24T19:06:25.208Z,7.90
2022-12-24T19:08:58.559Z,7.90
2022-12-24T19:11:29.544Z,7.90
2022-12-24T19:13:57.906Z,7.80
2022-12-24T19:16:25.827Z,7.80
2022-12-24T19:18:52.606Z,7.90
2022-12-24T19:21:19.565Z,7.90
2022-12-24T19:23:47.555Z,7.90
2022-12-24T19:26:16.728Z,7.90
2022-12-24T19:28:44.416Z,7.90
2022-12-24T19:31:29.451Z,7.90
2022-12-24T19:33:57.003Z,7.90
2022-12-24T19:36:27.700Z,7.90
2022-12-24T19:38:55.956Z,7.90
2022-12-24T19:41:26.941Z,7.90
2022-12-24T19:43:58.048Z,7.90
2022-12-24T19:46:28.748Z,7.90
2022-12-24T19:48:59.812Z,7.90
2022-12-24T19:51:28.850Z,7.90
2022-12-24T19:53:59.017Z,7.90
2022-12-24T19:56:29.555Z,7.90
2022-12-24T19:58:57.595Z,7.90
2022-12-24T20:01:28.745Z,7.90
2022-12-24T20:03:56.864Z,7.90
2022-12-24T20:06:28.087Z,7.90
2022-12-24T20:09:06.735Z,7.90
2022-12-24T20:11:34.747Z,7.90
2022-12-24T20:14:03.673Z,7.90
2022-12-24T20:16:31.037Z,7.90
2022-12-24T20:19:05.490Z,7.90
2022-12-24T20:21:32.955Z,7.90
2022-12-24T20:24:00.252Z,7.90
2022-12-24T20:26:29.265Z,7.90
2022-12-24T20:28:56.076Z,7.90
2022-12-24T20:31:29.473Z,7.90
2022-12-24T20:33:58.564Z,7.90
2022-12-24T20:36:27.232Z,7.90
2022-12-24T20:38:54.336Z,7.90
2022-12-24T20:41:25.260Z,7.90
2022-12-24T20:43:52.561Z,7.90
2022-12-24T20:46:22.690Z,7.90
2022-12-24T20:48:50.249Z,7.90
2022-12-24T20:51:24.608Z,7.90
2022-12-24T20:53:59.227Z,7.90
2022-12-24T20:56:26.928Z,7.90
2022-12-24T20:58:53.911Z,7.90
2022-12-24T21:01:25.348Z,7.90
2022-12-24T21:03:54.459Z,7.90
2022-12-24T21:06:22.439Z,7.90
2022-12-24T21:08:50.599Z,7.90
2022-12-24T21:11:36.328Z,7.90
2022-12-24T21:14:03.240Z,7.90
2022-12-24T21:16:35.885Z,7.90
2022-12-24T21:19:04.027Z,7.90
2022-12-24T21:21:31.361Z,7.90
2022-12-24T21:23:58.812Z,7.90
2022-12-24T21:26:25.543Z,7.90
2022-12-24T21:28:53.165Z,7.90
2022-12-24T21:31:20.295Z,7.90
2022-12-24T21:33:47.335Z,7.90
2022-12-24T21:36:15.253Z,7.90
2022-12-24T21:38:42.409Z,7.90
2022-12-24T21:41:16.187Z,7.90
2022-12-24T21:43:43.978Z,7.80
2022-12-24T21:46:15.386Z,7.80
2022-12-24T21:49:00.995Z,7.80
2022-12-24T21:51:28.710Z,7.80
2022-12-24T21:54:14.698Z,7.80
2022-12-24T21:57:01.106Z,7.80
2022-12-24T21:59:28.986Z,7.80
2022-12-24T22:01:57.443Z,7.90
2022-12-24T22:04:24.994Z,7.80
2022-12-24T22:07:10.492Z,7.80
2022-12-24T22:09:57.332Z,7.80
2022-12-24T22:12:25.585Z,7.80
2022-12-24T22:14:52.447Z,7.80
2022-12-24T22:17:24.821Z,7.80
2022-12-24T22:19:53.350Z,7.80
2022-12-24T22:22:20.486Z,7.80
2022-12-24T22:24:47.268Z,7.80
2022-12-24T22:27:14.039Z,7.80
2022-12-24T22:29:40.857Z,7.80
2022-12-24T22:32:07.580Z,7.80
2022-12-24T22:34:35.129Z,7.80
2022-12-24T22:37:01.868Z,7.80
2022-12-24T22:39:28.584Z,7.70
2022-12-24T22:41:57.834Z,7.70
2022-12-24T22:44:25.437Z,7.70
2022-12-24T22:46:52.312Z,7.70
2022-12-24T22:49:19.082Z,7.70
2022-12-24T22:51:45.802Z,7.70
2022-12-24T22:54:12.518Z,7.70
2022-12-24T22:56:41.493Z,7.70
2022-12-24T22:59:13.511Z,7.70
2022-12-24T23:01:44.674Z,7.70
2022-12-24T23:04:13.188Z,7.70
2022-12-24T23:06:40.842Z,7.70
2022-12-24T23:09:11.258Z,7.70
2022-12-24T23:11:40.152Z,7.70
2022-12-24T23:14:26.148Z,7.70
2022-12-24T23:16:53.076Z,7.70
2022-12-24T23:19:19.801Z,7.60
2022-12-24T23:21:46.523Z,7.60
2022-12-24T23:24:13.241Z,7.60
2022-12-24T23:26:40.439Z,7.60
2022-12-24T23:29:07.185Z,7.60
2022-12-24T23:31:34.787Z,7.50
2022-12-24T23:34:01.865Z,7.50
2022-12-24T23:36:28.667Z,7.50
2022-12-24T23:38:55.560Z,7.50
2022-12-24T23:41:22.509Z,7.40
2022-12-24T23:43:49.355Z,7.40
2022-12-24T23:46:18.649Z,7.40
2022-12-24T23:48:45.843Z,7.40
2022-12-24T23:51:17.863Z,7.40
2022-12-24T23:53:45.131Z,7.40
2022-12-24T23:56:12.639Z,7.40
2022-12-24T23:58:41.516Z,7.40
